Time;durP1;ratioP1;P1;durP2;ratioP2;P2;SDS_P1;SDS_P2;PMS_P1;PMS_P2;Temp;Humidity;BMP_temperature;BMP_pressure;BME280_temperature;BME280_humidity;BME280_pressure;Samples;Min_cycle;Max_cycle;Signal;HPM_P1;HPM_P2
2021/08/09 00:00:30;;;;;;;16.85;3.13;;;;;;;17.83;65.42;101256.97;5050712;28;20050;-73
2021/08/09 00:02:55;;;;;;;15.10;3.50;;;;;;;17.77;66.27;101259.16;5084317;28;20336;-73
2021/08/09 00:05:21;;;;;;;14.52;3.30;;;;;;;17.63;65.84;101252.97;5064463;28;20316;-73
2021/08/09 00:07:46;;;;;;;15.63;3.10;;;;;;;17.34;68.68;101251.31;5095023;28;20031;-73
2021/08/09 00:10:12;;;;;;;17.00;3.90;;;;;;;17.32;67.05;101269.94;5063595;28;20295;-73
2021/08/09 00:12:37;;;;;;;7.15;2.72;;;;;;;18.13;65.11;101261.25;5094036;28;20129;-73
2021/08/09 00:15:03;;;;;;;12.98;2.90;;;;;;;18.28;66.74;101263.84;5067808;28;20028;-73
2021/08/09 00:17:28;;;;;;;9.18;2.08;;;;;;;19.02;64.49;101267.69;5100465;28;20241;-73
2021/08/09 00:19:54;;;;;;;18.58;3.35;;;;;;;17.16;67.85;101271.84;5084684;28;20040;-73
2021/08/09 00:22:19;;;;;;;13.00;3.25;;;;;;;17.65;69.25;101266.13;5063822;28;20063;-73
2021/08/09 00:24:45;;;;;;;16.25;3.40;;;;;;;17.22;68.28;101263.50;5065561;28;20032;-73
2021/08/09 00:27:10;;;;;;;9.98;2.53;;;;;;;17.36;69.50;101265.31;5064624;28;20028;-73
2021/08/09 00:29:35;;;;;;;18.60;3.97;;;;;;;17.03;67.94;101269.09;5063916;28;20032;-73
2021/08/09 00:32:01;;;;;;;17.38;3.42;;;;;;;18.11;65.27;101268.47;5064485;28;20062;-73
2021/08/09 00:34:27;;;;;;;22.98;3.42;;;;;;;17.43;66.56;101271.91;5064788;28;20031;-73
2021/08/09 00:36:52;;;;;;;5.97;2.08;;;;;;;17.83;68.40;101267.56;5048688;28;20025;-73
2021/08/09 00:39:18;;;;;;;12.27;3.13;;;;;;;17.70;66.47;101277.28;5081650;28;20024;-73
2021/08/09 00:41:43;;;;;;;11.05;2.83;;;;;;;17.95;67.79;101265.94;5063849;28;20016;-73
2021/08/09 00:44:08;;;;;;;19.00;3.78;;;;;;;17.53;66.00;101257.13;5066617;28;20047;-73
2021/08/09 00:46:34;;;;;;;19.17;4.30;;;;;;;16.98;69.57;101265.88;5099953;28;20224;-73
2021/08/09 00:48:59;;;;;;;14.85;3.58;;;;;;;16.98;69.04;101265.88;5084180;28;20074;-73
2021/08/09 00:51:25;;;;;;;11.93;3.20;;;;;;;17.82;67.95;101265.03;5083620;28;20327;-73
2021/08/09 00:53:50;;;;;;;12.77;3.17;;;;;;;17.10;69.17;101270.41;5049573;28;20026;-73
2021/08/09 00:56:16;;;;;;;20.60;3.60;;;;;;;17.59;66.53;101264.72;5063367;28;20039;-73
2021/08/09 00:58:41;;;;;;;13.60;3.58;;;;;;;17.33;66.26;101266.31;5063127;28;20024;-73
2021/08/09 01:01:07;;;;;;;5.68;2.38;;;;;;;18.31;66.34;101274.25;5047399;28;20207;-73
2021/08/09 01:03:32;;;;;;;9.20;2.63;;;;;;;17.91;67.30;101272.41;5063232;28;20036;-73
2021/08/09 01:05:58;;;;;;;20.10;3.33;;;;;;;16.77;68.53;101266.19;5034777;28;20024;-73
2021/08/09 01:08:35;;;;;;;9.00;2.75;;;;;;;17.39;69.24;101273.03;5038631;28;20299;-73
2021/08/09 01:11:12;;;;;;;8.02;2.40;;;;;;;18.13;65.97;101276.31;5063612;28;20045;-73
2021/08/09 01:13:53;;;;;;;8.27;2.75;;;;;;;17.91;66.41;101280.34;5081210;28;20073;-73
2021/08/09 01:16:25;;;;;;;15.52;3.60;;;;;;;16.78;69.60;101278.47;5057852;28;20036;-73
2021/08/09 01:18:50;;;;;;;14.52;2.75;;;;;;;17.42;69.44;101271.03;5067662;28;20386;-73
2021/08/09 01:21:16;;;;;;;6.57;1.95;;;;;;;17.21;70.04;101280.34;5083124;28;20027;-73
2021/08/09 01:24:09;;;;;;;16.90;3.85;;;;;;;16.87;71.34;101279.75;5066527;28;20051;-73
2021/08/09 01:26:51;;;;;;;17.13;3.42;;;;;;;17.27;68.08;101283.44;5064927;28;20131;-73
2021/08/09 01:29:19;;;;;;;16.23;2.88;;;;;;;16.78;69.57;101281.09;5081855;28;20273;-72
2021/08/09 01:31:46;;;;;;;20.63;3.28;;;;;;;16.24;70.58;101284.25;5062416;28;20032;-73
2021/08/09 01:34:11;;;;;;;21.02;3.72;;;;;;;16.24;71.92;101289.53;5046567;28;20025;-73
2021/08/09 01:36:39;;;;;;;13.68;3.97;;;;;;;15.99;72.18;101295.38;5037470;28;20131;-73
2021/08/09 01:39:05;;;;;;;11.43;3.20;;;;;;;17.40;67.05;101285.34;5063581;28;20103;-73
2021/08/09 01:41:30;;;;;;;9.55;2.80;;;;;;;18.22;65.16;101295.09;5062587;28;20521;-73
2021/08/09 01:43:56;;;;;;;10.82;3.17;;;;;;;16.90;69.16;101295.44;5062813;28;20039;-73
2021/08/09 01:46:21;;;;;;;14.85;2.70;;;;;;;17.26;69.97;101292.34;5054948;28;20271;-73
2021/08/09 01:48:47;;;;;;;13.63;3.80;;;;;;;17.06;69.43;101304.16;5065936;28;20028;-73
2021/08/09 01:51:13;;;;;;;10.93;2.67;;;;;;;17.86;68.36;101294.84;5050205;28;20059;-73
2021/08/09 01:53:39;;;;;;;12.55;2.97;;;;;;;17.04;70.83;101302.53;5045850;28;20353;-73
2021/08/09 01:56:05;;;;;;;8.55;2.60;;;;;;;17.02;68.10;101296.47;5042058;28;20017;-72
2021/08/09 01:58:30;;;;;;;12.50;2.97;;;;;;;17.67;68.81;101297.81;5065389;28;20036;-72
2021/08/09 02:00:55;;;;;;;12.25;2.78;;;;;;;16.70;69.77;101300.09;5045885;28;20032;-72
2021/08/09 02:03:21;;;;;;;11.40;2.65;;;;;;;17.82;67.19;101305.59;5062131;28;20060;-72
2021/08/09 02:05:46;;;;;;;12.52;3.47;;;;;;;16.54;68.51;101301.09;5045655;28;20037;-72
2021/08/09 02:08:12;;;;;;;16.73;3.58;;;;;;;17.52;65.88;101300.47;5080176;28;20100;-72
2021/08/09 02:10:37;;;;;;;8.18;2.75;;;;;;;16.89;69.28;101302.50;5046922;28;20024;-72
2021/08/09 02:13:06;;;;;;;10.32;2.90;;;;;;;17.54;67.27;101309.16;5046048;28;20044;-73
2021/08/09 02:16:03;;;;;;;7.55;2.47;;;;;;;16.86;67.49;101315.06;5063310;28;20028;-73
2021/08/09 02:18:43;;;;;;;16.73;3.33;;;;;;;16.61;68.53;101313.00;5080545;28;20372;-72
2021/08/09 02:21:10;;;;;;;16.50;3.58;;;;;;;16.86;69.93;101312.41;5049101;28;20028;-72
2021/08/09 02:23:53;;;;;;;14.45;2.92;;;;;;;17.03;68.52;101306.97;5048538;28;20043;-72
2021/08/09 02:26:35;;;;;;;16.70;3.45;;;;;;;16.34;70.01;101308.38;5081991;28;20032;-72
2021/08/09 02:29:10;;;;;;;18.38;3.28;;;;;;;16.89;69.21;101312.25;5061931;28;20036;-72
2021/08/09 02:31:36;;;;;;;9.75;2.90;;;;;;;16.60;70.15;101314.78;5029934;28;20043;-72
2021/08/09 02:34:01;;;;;;;12.45;2.92;;;;;;;16.54;68.72;101314.31;5046079;28;20091;-75
2021/08/09 02:36:27;;;;;;;8.23;2.42;;;;;;;16.60;70.97;101304.19;5044937;28;20058;-75
2021/08/09 02:38:52;;;;;;;14.07;3.05;;;;;;;16.27;70.90;101313.16;5088131;28;20329;-75
2021/08/09 02:41:18;;;;;;;19.27;3.63;;;;;;;15.76;72.72;101316.94;5061725;28;20035;-75
2021/08/09 02:43:43;;;;;;;12.65;3.03;;;;;;;16.27;70.65;101317.59;5060205;28;20039;-75
2021/08/09 02:46:09;;;;;;;13.20;3.50;;;;;;;16.22;72.64;101319.63;5065361;28;20034;-75
2021/08/09 02:48:34;;;;;;;15.88;3.33;;;;;;;15.77;72.35;101314.22;5060881;28;20040;-75
2021/08/09 02:50:59;;;;;;;8.20;2.28;;;;;;;17.58;69.54;101300.06;5029425;28;20254;-75
2021/08/09 02:53:25;;;;;;;14.90;3.13;;;;;;;16.41;70.44;101309.72;5045870;28;20054;-75
2021/08/09 02:55:52;;;;;;;14.05;3.03;;;;;;;16.67;69.57;101310.84;5071427;28;20063;-75
2021/08/09 02:58:19;;;;;;;17.25;3.67;;;;;;;16.51;71.48;101315.31;5051088;28;20032;-75
2021/08/09 03:00:45;;;;;;;14.80;3.17;;;;;;;16.52;72.57;101309.09;5065295;28;20235;-74
2021/08/09 03:03:10;;;;;;;11.65;2.20;;;;;;;16.69;69.67;101308.94;5082131;28;20307;-74
2021/08/09 03:05:36;;;;;;;16.65;3.00;;;;;;;16.27;72.91;101310.50;5081290;28;20019;-74
2021/08/09 03:08:01;;;;;;;13.13;3.38;;;;;;;16.02;71.76;101311.03;5070204;28;20034;-74
2021/08/09 03:10:27;;;;;;;12.00;2.65;;;;;;;17.08;68.16;101315.50;5080449;28;20219;-74
2021/08/09 03:12:58;;;;;;;18.83;4.05;;;;;;;16.23;70.73;101311.63;5099734;28;20044;-74
2021/08/09 03:15:25;;;;;;;20.15;4.05;;;;;;;15.50;73.96;101316.53;5065378;28;20095;-75
2021/08/09 03:17:50;;;;;;;14.63;3.70;;;;;;;15.95;72.65;101316.75;5068916;28;20124;-75
2021/08/09 03:20:15;;;;;;;15.90;3.65;;;;;;;15.63;72.90;101322.84;5101804;28;20074;-75
2021/08/09 03:22:41;;;;;;;10.77;2.40;;;;;;;17.05;69.06;101317.47;5103292;28;20060;-75
2021/08/09 03:25:07;;;;;;;16.48;4.05;;;;;;;16.15;71.40;101319.13;5085676;28;20380;-75
2021/08/09 03:27:32;;;;;;;14.40;3.15;;;;;;;16.47;70.80;101321.72;5102672;28;20419;-75
2021/08/09 03:29:58;;;;;;;8.77;2.60;;;;;;;16.96;70.85;101320.66;5070438;28;20062;-75
2021/08/09 03:32:23;;;;;;;11.60;2.80;;;;;;;16.76;69.66;101319.19;5064940;28;20044;-75
2021/08/09 03:34:48;;;;;;;12.90;3.40;;;;;;;16.88;71.05;101323.75;5082978;28;20308;-75
2021/08/09 03:37:14;;;;;;;15.15;3.15;;;;;;;16.50;71.19;101319.75;5082839;28;20052;-75
2021/08/09 03:39:39;;;;;;;14.18;3.60;;;;;;;15.88;73.77;101317.09;5066631;28;20044;-75
2021/08/09 03:42:05;;;;;;;16.77;3.65;;;;;;;15.87;74.95;101320.66;5065513;28;20613;-76
2021/08/09 03:44:30;;;;;;;19.52;3.70;;;;;;;16.77;70.10;101315.56;5064672;28;20571;-75
2021/08/09 03:46:56;;;;;;;14.27;3.33;;;;;;;16.59;69.80;101321.03;5070976;28;20055;-75
2021/08/09 03:49:21;;;;;;;15.02;2.95;;;;;;;16.09;71.56;101319.47;5100886;28;20040;-76
2021/08/09 03:51:46;;;;;;;15.75;3.58;;;;;;;15.55;72.89;101320.63;5085422;28;20032;-76
2021/08/09 03:54:12;;;;;;;21.52;3.90;;;;;;;15.76;73.13;101316.94;5102422;28;20028;-76
2021/08/09 03:56:37;;;;;;;14.65;3.55;;;;;;;15.85;73.23;101322.53;5089540;28;20118;-75
2021/08/09 03:59:03;;;;;;;17.80;3.47;;;;;;;15.99;71.45;101320.91;5066162;28;20036;-75
2021/08/09 04:01:28;;;;;;;17.20;3.42;;;;;;;15.60;73.23;101316.88;5047565;28;20028;-75
2021/08/09 04:03:54;;;;;;;11.77;2.40;;;;;;;15.98;73.78;101316.59;5082603;28;20063;-75
2021/08/09 04:06:20;;;;;;;17.98;3.28;;;;;;;15.79;73.68;101322.03;5082613;28;20026;-75
2021/08/09 04:08:48;;;;;;;16.67;3.45;;;;;;;15.75;73.11;101329.25;5063191;28;20088;-76
2021/08/09 04:11:13;;;;;;;8.27;2.45;;;;;;;15.91;72.52;101330.13;5082577;28;20028;-76
2021/08/09 04:13:41;;;;;;;10.40;3.03;;;;;;;15.48;74.07;101340.34;5047854;28;20082;-76
2021/08/09 04:16:06;;;;;;;17.25;3.33;;;;;;;15.79;72.64;101343.16;5064848;28;20082;-76
2021/08/09 04:18:32;;;;;;;10.23;3.05;;;;;;;16.60;72.52;101337.72;5066260;28;20077;-76
2021/08/09 04:20:57;;;;;;;17.15;3.83;;;;;;;15.80;72.83;101339.59;5082424;28;20032;-76
2021/08/09 04:23:23;;;;;;;10.52;3.33;;;;;;;15.54;73.72;101334.75;5081851;28;20086;-76
2021/08/09 04:25:48;;;;;;;12.32;2.70;;;;;;;15.80;75.35;101343.06;5064019;28;20036;-76
2021/08/09 04:28:13;;;;;;;9.27;2.15;;;;;;;16.76;71.61;101341.19;5075935;28;20047;-76
2021/08/09 04:30:39;;;;;;;13.27;2.67;;;;;;;16.99;69.21;101345.16;5100404;28;20328;-75
2021/08/09 04:33:04;;;;;;;13.75;3.03;;;;;;;16.40;70.10;101345.00;5067788;28;20039;-75
2021/08/09 04:35:30;;;;;;;11.82;2.60;;;;;;;15.74;73.09;101341.63;5101753;28;20324;-75
2021/08/09 04:37:55;;;;;;;20.80;3.53;;;;;;;15.80;73.10;101345.72;5063973;28;20032;-75
2021/08/09 04:40:21;;;;;;;12.50;2.75;;;;;;;17.30;68.81;101340.66;5051272;28;20029;-76
2021/08/09 04:42:46;;;;;;;8.70;2.38;;;;;;;17.15;68.80;101345.06;5079742;28;20044;-75
2021/08/09 04:45:12;;;;;;;14.85;3.45;;;;;;;15.66;72.59;101356.13;5101719;28;20358;-76
2021/08/09 04:47:37;;;;;;;10.20;2.67;;;;;;;15.65;72.72;101352.66;5067045;28;20039;-76
2021/08/09 04:50:03;;;;;;;6.30;1.98;;;;;;;16.68;71.26;101349.56;5082519;28;20039;-76
2021/08/09 04:52:28;;;;;;;12.15;2.85;;;;;;;16.43;70.33;101351.94;5066534;28;20363;-75
2021/08/09 04:54:54;;;;;;;10.20;2.83;;;;;;;16.56;70.14;101352.06;5063544;28;20247;-75
2021/08/09 04:57:19;;;;;;;14.85;2.85;;;;;;;15.95;72.44;101359.84;5087504;28;20036;-76
2021/08/09 04:59:44;;;;;;;13.00;2.50;;;;;;;15.97;71.67;101355.38;5092598;28;20123;-76
2021/08/09 05:02:10;;;;;;;13.35;3.08;;;;;;;16.26;72.72;101351.09;5063785;28;20093;-76
2021/08/09 05:04:35;;;;;;;12.02;2.55;;;;;;;15.91;71.30;101351.25;5046173;28;20032;-75
2021/08/09 05:07:04;;;;;;;10.02;2.22;;;;;;;16.00;71.63;101355.19;5084516;28;20024;-76
2021/08/09 05:09:29;;;;;;;10.45;2.28;;;;;;;15.72;73.09;101346.09;5099425;28;20094;-76
2021/08/09 05:11:55;;;;;;;10.27;2.88;;;;;;;16.00;73.35;101352.53;5046619;28;20028;-75
2021/08/09 05:14:20;;;;;;;10.57;1.88;;;;;;;18.20;66.94;101346.53;5070031;28;20036;-73
2021/08/09 05:16:47;;;;;;;11.70;2.45;;;;;;;18.73;64.22;101342.13;5071814;28;20052;-73
2021/08/09 05:19:12;;;;;;;6.65;2.22;;;;;;;17.96;67.80;101343.66;5080749;28;20283;-73
2021/08/09 05:21:37;;;;;;;5.05;1.75;;;;;;;20.01;61.63;101343.09;5064237;28;20419;-73
2021/08/09 05:24:05;;;;;;;5.30;1.70;;;;;;;20.27;60.22;101347.34;5061489;28;20056;-73
2021/08/09 05:26:30;;;;;;;13.60;1.70;;;;;;;20.37;60.93;101347.50;5080205;28;20119;-73
2021/08/09 05:28:57;;;;;;;8.77;1.67;;;;;;;20.41;61.01;101346.34;5063395;28;20063;-73
2021/08/09 05:31:23;;;;;;;6.90;2.10;;;;;;;20.35;60.66;101349.44;5080826;28;20044;-73
2021/08/09 05:33:48;;;;;;;6.82;1.90;;;;;;;20.83;59.35;101345.91;5062867;28;20038;-73
2021/08/09 05:36:14;;;;;;;4.85;1.35;;;;;;;20.74;59.62;101351.91;5062588;28;20052;-73
2021/08/09 05:38:39;;;;;;;6.97;2.00;;;;;;;20.68;59.54;101356.75;5062593;28;20023;-73
2021/08/09 05:41:06;;;;;;;5.82;1.52;;;;;;;20.69;59.67;101361.09;5061053;28;20029;-74
2021/08/09 05:43:31;;;;;;;14.95;2.63;;;;;;;20.91;59.21;101356.81;5027662;28;20055;-73
2021/08/09 05:45:57;;;;;;;9.80;1.92;;;;;;;20.69;59.92;101363.78;5078955;28;20524;-71
2021/08/09 05:48:22;;;;;;;7.63;1.63;;;;;;;21.05;59.04;101369.94;5079015;28;20024;-73
2021/08/09 05:50:48;;;;;;;4.95;1.80;;;;;;;21.15;58.75;101366.56;5078976;28;20040;-73
2021/08/09 05:53:13;;;;;;;5.28;1.60;;;;;;;21.15;58.67;101371.88;5066569;28;20059;-74
2021/08/09 05:55:39;;;;;;;5.90;1.83;;;;;;;21.01;59.02;101375.59;5088199;28;20065;-74
2021/08/09 05:58:04;;;;;;;2.53;1.33;;;;;;;21.14;58.68;101378.16;5071998;28;20037;-74
2021/08/09 06:00:29;;;;;;;7.50;1.83;;;;;;;20.74;59.77;101367.88;5054744;28;20036;-74
2021/08/09 06:02:55;;;;;;;9.98;1.73;;;;;;;21.21;58.25;101382.94;5079593;28;20060;-74
2021/08/09 06:05:20;;;;;;;14.00;2.88;;;;;;;21.16;58.49;101370.94;5062125;28;20025;-74
2021/08/09 06:07:46;;;;;;;10.90;2.75;;;;;;;21.14;58.46;101376.38;5062384;28;20036;-74
2021/08/09 06:10:11;;;;;;;17.42;3.25;;;;;;;21.07;58.96;101375.97;5079025;28;20029;-74
2021/08/09 06:12:37;;;;;;;12.55;2.80;;;;;;;21.40;57.96;101368.16;5045781;28;20103;-74
2021/08/09 06:15:06;;;;;;;13.63;2.80;;;;;;;21.07;59.25;101372.47;5045900;28;20066;-74
2021/08/09 06:17:32;;;;;;;17.30;2.55;;;;;;;21.14;58.94;101371.03;5080094;28;20201;-74
2021/08/09 06:19:58;;;;;;;12.63;2.70;;;;;;;21.02;59.18;101369.31;5080469;28;20417;-74
2021/08/09 06:22:23;;;;;;;10.90;1.83;;;;;;;21.12;58.57;101362.34;5090489;28;20024;-74
2021/08/09 06:24:49;;;;;;;6.45;1.88;;;;;;;21.39;58.19;101363.78;5080053;28;20052;-74
2021/08/09 06:27:14;;;;;;;10.05;2.25;;;;;;;21.52;57.46;101369.03;5062167;28;20237;-73
2021/08/09 06:29:40;;;;;;;10.02;2.20;;;;;;;21.61;56.94;101377.19;5082763;28;20074;-73
2021/08/09 06:32:05;;;;;;;6.13;1.95;;;;;;;21.64;56.98;101374.25;5085691;28;20040;-73
2021/08/09 06:34:30;;;;;;;7.88;1.88;;;;;;;21.53;57.22;101368.09;5062367;28;20107;-73
2021/08/09 06:36:56;;;;;;;7.35;1.92;;;;;;;21.62;56.84;101380.69;5079929;28;20085;-73
2021/08/09 06:39:21;;;;;;;8.75;1.58;;;;;;;21.57;55.25;101375.69;5053147;28;20031;-73
2021/08/09 06:41:47;;;;;;;11.90;1.80;;;;;;;21.80;56.45;101381.03;5093210;28;20445;-74
2021/08/09 06:44:12;;;;;;;8.02;2.22;;;;;;;21.82;56.00;101371.94;5079002;28;20065;-74
2021/08/09 06:46:38;;;;;;;10.18;2.10;;;;;;;21.83;56.28;101375.47;5078272;28;20032;-74
2021/08/09 06:49:04;;;;;;;9.52;2.10;;;;;;;21.92;56.18;101373.88;5076621;28;20092;-74
2021/08/09 06:51:30;;;;;;;9.50;1.88;;;;;;;21.88;56.20;101380.44;5095821;28;20032;-74
2021/08/09 06:53:55;;;;;;;5.65;1.85;;;;;;;21.65;56.87;101383.97;5097474;28;20335;-75
2021/08/09 06:56:21;;;;;;;7.75;1.95;;;;;;;21.31;58.01;101380.38;5079914;28;20054;-74
2021/08/09 06:58:46;;;;;;;7.00;2.08;;;;;;;21.10;57.63;101382.88;5082414;28;20029;-74
2021/08/09 07:01:11;;;;;;;7.03;2.65;;;;;;;21.49;57.48;101383.47;5068831;28;20040;-74
2021/08/09 07:03:37;;;;;;;7.53;1.50;;;;;;;21.39;57.85;101385.97;5067219;28;20108;-74
2021/08/09 07:06:02;;;;;;;5.78;1.83;;;;;;;21.09;58.55;101389.19;5062638;28;20350;-74
2021/08/09 07:08:28;;;;;;;6.22;1.63;;;;;;;20.85;59.18;101389.25;5056244;28;20023;-74
2021/08/09 07:10:53;;;;;;;5.25;1.45;;;;;;;21.03;58.34;101389.66;5084626;28;20033;-74
2021/08/09 07:13:19;;;;;;;7.03;1.63;;;;;;;20.97;58.46;101382.97;5071216;28;20548;-74
2021/08/09 07:15:45;;;;;;;8.93;2.25;;;;;;;21.15;57.97;101382.53;5066196;28;20236;-74
2021/08/09 07:18:10;;;;;;;8.65;1.98;;;;;;;21.16;57.85;101381.59;5054022;28;20036;-74
2021/08/09 07:20:35;;;;;;;6.80;1.83;;;;;;;21.18;57.42;101379.66;5054001;28;20073;-74
2021/08/09 07:23:01;;;;;;;7.28;1.65;;;;;;;21.05;57.61;101390.41;5069666;28;20049;-74
2021/08/09 07:25:26;;;;;;;4.13;1.88;;;;;;;21.22;57.13;101378.44;5052689;28;20028;-74
2021/08/09 07:27:52;;;;;;;4.82;1.67;;;;;;;21.17;57.36;101389.44;5092026;28;20051;-74
2021/08/09 07:30:18;;;;;;;4.97;2.00;;;;;;;21.13;57.64;101387.97;5081767;28;20219;-74
2021/08/09 07:32:43;;;;;;;4.97;1.50;;;;;;;21.06;57.39;101392.06;5081445;28;20039;-74
2021/08/09 07:35:09;;;;;;;5.38;1.85;;;;;;;20.88;57.84;101389.00;5097730;28;20127;-74
2021/08/09 07:37:34;;;;;;;6.05;1.98;;;;;;;20.90;57.81;101379.94;5049976;28;20032;-74
2021/08/09 07:40:00;;;;;;;6.22;1.50;;;;;;;21.17;57.01;101383.25;5099743;28;20098;-74
2021/08/09 07:42:25;;;;;;;6.13;1.95;;;;;;;20.42;57.72;101377.28;5083023;28;20046;-74
2021/08/09 07:44:53;;;;;;;6.85;1.55;;;;;;;20.65;58.19;101390.75;5099750;28;20050;-74
2021/08/09 07:47:19;;;;;;;6.28;1.67;;;;;;;20.96;56.92;101393.75;5082031;28;20036;-74
2021/08/09 07:49:44;;;;;;;5.72;1.60;;;;;;;20.97;57.15;101390.94;5091403;28;20062;-74
2021/08/09 07:52:10;;;;;;;7.38;1.98;;;;;;;20.96;57.18;101385.78;5090891;28;20174;-74
2021/08/09 07:54:35;;;;;;;5.30;1.55;;;;;;;21.09;56.72;101391.84;5072877;28;20379;-74
2021/08/09 07:57:04;;;;;;;8.15;1.77;;;;;;;21.09;56.79;101386.53;5095948;28;20043;-74
2021/08/09 07:59:30;;;;;;;3.70;1.60;;;;;;;20.95;57.23;101386.72;5092459;28;20054;-74
2021/08/09 08:01:57;;;;;;;7.93;1.95;;;;;;;21.10;56.38;101380.22;5063536;28;20028;-74
2021/08/09 08:04:22;;;;;;;8.98;2.22;;;;;;;20.90;56.90;101374.63;5096162;28;20028;-74
2021/08/09 08:06:48;;;;;;;7.43;1.73;;;;;;;20.95;56.15;101379.56;5080711;28;20084;-74
2021/08/09 08:09:13;;;;;;;6.03;1.95;;;;;;;21.22;56.16;101373.94;5096855;28;20036;-73
2021/08/09 08:11:38;;;;;;;6.78;1.92;;;;;;;21.19;56.21;101381.34;5097733;28;20354;-73
2021/08/09 08:14:04;;;;;;;12.38;2.22;;;;;;;21.24;55.94;101376.50;5095353;28;20246;-74
2021/08/09 08:16:29;;;;;;;6.78;1.75;;;;;;;21.06;56.62;101374.28;5090289;28;20036;-73
2021/08/09 08:18:55;;;;;;;6.80;2.10;;;;;;;21.08;56.22;101367.03;5059906;28;20028;-73
2021/08/09 08:21:20;;;;;;;6.45;2.13;;;;;;;21.06;55.13;101370.78;5089084;28;20024;-74
2021/08/09 08:23:46;;;;;;;3.92;1.65;;;;;;;20.90;56.89;101373.75;5086148;28;20388;-74
2021/08/09 08:26:11;;;;;;;2.53;1.60;;;;;;;20.59;57.66;101383.16;5045186;28;20028;-74
2021/08/09 08:28:37;;;;;;;4.18;1.58;;;;;;;20.55;57.51;101373.72;5088813;28;20085;-73
2021/08/09 08:31:02;;;;;;;7.00;1.73;;;;;;;20.90;57.18;101379.94;5088000;28;20042;-73
2021/08/09 08:33:28;;;;;;;3.33;1.63;;;;;;;20.65;56.83;101374.78;5086896;28;20033;-73
2021/08/09 08:35:53;;;;;;;5.13;1.67;;;;;;;20.91;57.11;101378.13;5054159;28;20028;-74
2021/08/09 08:38:19;;;;;;;4.60;1.70;;;;;;;21.12;56.23;101378.31;5072310;28;20044;-74
2021/08/09 08:40:49;;;;;;;5.88;1.80;;;;;;;20.64;57.57;101368.59;5089561;28;20051;-74
2021/08/09 08:43:21;;;;;;;4.38;1.88;;;;;;;20.74;57.33;101379.41;5078338;28;20024;-74
2021/08/09 08:45:54;;;;;;;4.97;1.70;;;;;;;20.75;57.10;101375.75;5062088;28;20908;-73
2021/08/09 08:48:19;;;;;;;7.70;2.35;;;;;;;20.73;57.15;101391.00;5081844;28;20032;-73
2021/08/09 08:50:45;;;;;;;3.65;1.65;;;;;;;20.47;57.63;101382.28;5056368;28;20734;-74
2021/08/09 08:53:10;;;;;;;5.75;1.60;;;;;;;20.55;57.09;101382.53;5071222;28;20032;-73
2021/08/09 08:55:36;;;;;;;6.15;1.75;;;;;;;20.43;58.47;101391.44;5066002;28;20179;-73
2021/08/09 08:58:01;;;;;;;4.00;1.40;;;;;;;20.50;57.91;101380.25;5092047;28;20047;-73
2021/08/09 09:00:35;;;;;;;3.50;1.20;;;;;;;20.70;57.46;101386.78;5076872;28;20333;-73
2021/08/09 09:03:00;;;;;;;3.28;1.17;;;;;;;20.82;57.00;101387.66;5075398;28;20138;-74
2021/08/09 09:05:30;;;;;;;6.82;1.55;;;;;;;20.46;58.19;101394.72;5042175;28;20052;-74
2021/08/09 09:07:56;;;;;;;3.70;1.23;;;;;;;20.61;57.59;101400.75;5068503;28;20327;-74
2021/08/09 09:10:25;;;;;;;3.38;0.88;;;;;;;20.56;57.90;101399.38;5085641;28;20063;-74
2021/08/09 09:13:18;;;;;;;5.75;1.50;;;;;;;20.38;58.36;101398.91;5069572;28;20036;-75
2021/08/09 09:16:00;;;;;;;2.47;0.98;;;;;;;20.67;57.30;101394.97;5050578;28;20024;-74
2021/08/09 09:18:27;;;;;;;8.23;1.67;;;;;;;20.68;57.22;101390.50;5066875;28;20107;-74
2021/08/09 09:20:53;;;;;;;3.88;1.50;;;;;;;20.67;57.27;101400.28;5084823;28;20121;-74
2021/08/09 09:23:23;;;;;;;4.63;1.60;;;;;;;20.20;58.73;101398.44;5066296;28;20054;-74
2021/08/09 09:25:50;;;;;;;1.80;1.27;;;;;;;20.07;58.76;101401.97;5054164;28;20044;-74
2021/08/09 09:28:33;;;;;;;3.53;1.60;;;;;;;20.41;57.87;101398.69;5060913;28;20028;-74
2021/08/09 09:31:12;;;;;;;5.75;1.88;;;;;;;19.93;59.96;101404.78;5087313;28;20375;-74
2021/08/09 09:33:47;;;;;;;9.15;1.17;;;;;;;20.67;57.46;101399.47;5085358;28;20102;-73
2021/08/09 09:36:12;;;;;;;5.28;1.40;;;;;;;20.65;57.29;101399.56;5060702;28;20031;-74
2021/08/09 09:38:42;;;;;;;3.03;1.33;;;;;;;20.99;56.43;101399.69;5066491;28;20042;-74
2021/08/09 09:41:07;;;;;;;3.53;1.48;;;;;;;21.26;55.60;101404.69;5061132;28;20028;-74
2021/08/09 09:43:40;;;;;;;10.30;1.90;;;;;;;21.06;56.38;101397.41;5093454;28;20046;-74
2021/08/09 09:46:06;;;;;;;1.60;1.13;;;;;;;21.42;55.33;101393.72;5093697;28;20028;-74
2021/08/09 09:48:36;;;;;;;3.65;1.30;;;;;;;21.42;56.09;101395.53;5075823;28;20392;-74
2021/08/09 09:51:09;;;;;;;3.33;1.75;;;;;;;21.12;56.36;101394.28;5078528;28;20046;-74
2021/08/09 09:53:35;;;;;;;2.95;1.13;;;;;;;21.16;55.85;101401.06;5071448;28;20265;-74
2021/08/09 09:56:00;;;;;;;3.70;1.40;;;;;;;21.03;56.41;101397.66;5043163;28;20062;-74
2021/08/09 09:58:25;;;;;;;2.20;1.42;;;;;;;20.99;56.72;101398.84;5095396;28;20031;-74
2021/08/09 10:00:52;;;;;;;1.77;1.13;;;;;;;20.99;57.01;101402.38;5097855;28;20035;-74
2021/08/09 10:03:18;;;;;;;2.10;1.10;;;;;;;20.97;56.82;101404.25;5098892;28;20020;-74
2021/08/09 10:05:43;;;;;;;2.42;1.50;;;;;;;21.05;56.66;101401.06;5082764;28;20032;-73
2021/08/09 10:08:15;;;;;;;5.03;1.52;;;;;;;21.21;56.34;101411.34;5096456;28;20027;-74
2021/08/09 10:10:48;;;;;;;9.30;1.40;;;;;;;21.04;56.95;101407.31;5063454;28;20052;-74
2021/08/09 10:13:16;;;;;;;6.35;1.92;;;;;;;21.28;56.21;101399.25;5062532;28;20012;-74
2021/08/09 10:15:41;;;;;;;3.07;1.13;;;;;;;21.39;55.85;101399.31;5082604;28;20099;-74
2021/08/09 10:18:07;;;;;;;5.13;1.00;;;;;;;21.22;56.35;101397.09;5082259;28;20035;-74
2021/08/09 10:20:32;;;;;;;6.35;1.45;;;;;;;21.28;55.92;101405.47;5081225;28;20036;-74
2021/08/09 10:23:02;;;;;;;1.98;1.17;;;;;;;21.11;56.56;101391.75;5081132;28;20059;-74
2021/08/09 10:25:50;;;;;;;2.53;1.02;;;;;;;21.17;56.61;101402.75;5065388;28;20028;-74
2021/08/09 10:28:17;;;;;;;5.55;1.30;;;;;;;20.79;57.67;101405.66;5077977;28;20857;-74
2021/08/09 10:30:42;;;;;;;8.07;1.40;;;;;;;21.15;56.73;101402.03;5092162;28;20107;-74
2021/08/09 10:33:09;;;;;;;3.05;1.67;;;;;;;21.41;56.19;101402.69;5062390;28;20043;-74
2021/08/09 10:35:55;;;;;;;6.28;1.70;;;;;;;21.51;55.72;101404.66;5077787;28;20034;-74
2021/08/09 10:38:25;;;;;;;3.13;1.33;;;;;;;21.27;56.52;101397.59;5097085;28;20429;-74
2021/08/09 10:41:00;;;;;;;3.67;1.35;;;;;;;21.38;56.35;101402.09;5078756;28;20027;-74
2021/08/09 10:43:25;;;;;;;3.28;1.52;;;;;;;21.23;56.54;101396.97;5080390;28;20028;-74
2021/08/09 10:45:50;;;;;;;4.00;1.38;;;;;;;21.52;55.92;101391.22;5077802;28;20024;-74
2021/08/09 10:48:45;;;;;;;2.35;0.85;;;;;;;21.11;56.01;101392.56;5062914;28;20032;-74
2021/08/09 10:51:11;;;;;;;1.48;0.98;;;;;;;21.42;56.25;101391.06;5098659;28;20023;-74
2021/08/09 10:53:41;;;;;;;4.30;1.40;;;;;;;21.06;56.00;101384.94;5095451;28;20043;-74
2021/08/09 10:56:07;;;;;;;2.33;1.25;;;;;;;21.36;56.53;101388.88;5046780;28;20036;-74
2021/08/09 10:58:41;;;;;;;3.15;1.27;;;;;;;20.58;57.39;101392.13;5096424;28;20036;-74
2021/08/09 11:01:07;;;;;;;3.92;1.30;;;;;;;20.95;57.47;101394.72;5099353;28;20361;-74
2021/08/09 11:03:32;;;;;;;3.15;1.52;;;;;;;21.22;56.91;101395.25;5076456;28;20031;-74
2021/08/09 11:05:58;;;;;;;2.97;1.23;;;;;;;20.98;57.47;101392.66;5079942;28;20241;-74
2021/08/09 11:08:23;;;;;;;3.58;1.25;;;;;;;20.38;58.53;101396.25;5079931;28;20036;-74
2021/08/09 11:10:54;;;;;;;3.53;1.07;;;;;;;20.95;57.76;101398.22;5079886;28;20346;-74
2021/08/09 11:13:23;;;;;;;1.58;1.30;;;;;;;20.68;58.62;101399.34;5097473;28;20278;-74
2021/08/09 11:16:01;;;;;;;2.75;1.10;;;;;;;20.84;58.01;101411.50;5063990;28;20027;-74
2021/08/09 11:18:28;;;;;;;;;;;;;;;20.87;56.95;101409.44;5063566;28;20040;-74
2021/08/09 11:21:04;;;;;;;1.73;1.10;;;;;;;21.09;57.76;101407.84;5078615;28;20171;-74